Oslo Bulk 1 — 9V8766 — position and weather

sailwx.info

Track history (hours):
 
Tides and Currents Weather Stations Pressure Air Temp Water Temp Dewpoint Dewpoint Depression Visibility Wind Speed Wind Dir Waves Ship Positions

Oslo Bulk 1

Last reported at 2018-Jan-23 01:14 UTC. Time now 2018-Jan-23 16:17 UTC.
Position S 20°15' E 115°50'.

Length 108 m; draft 4.2 m.

Type: Cargo ship. MMSI: 564010000.

Date/timePositionNaut miles runAvg speedWind from/ knotsBaromVisibWave heightAir tempDewpointWater temp
2018-Jan-23 01:14S 20°15' E 115°50'410.3
2018-Jan-23 00:53S 20°15' E 115°54'512.6
2018-Jan-23 00:28S 20°14' E 115°60'4 9.1
2018-Jan-23 00:00S 20°13' E 116°04'2711.0
2018-Jan-22 21:33S 20°11' E 116°33'211.0
2018-Jan-22 21:23S 20°10' E 116°35'411.0
2018-Jan-22 20:59S 20°10' E 116°39'510.9
2018-Jan-22 20:30S 20°09' E 116°45'510.6
2018-Jan-22 20:00S 20°09' E 116°51'510.5
2018-Jan-22 19:30S 20°08' E 116°56'510.4
2018-Jan-22 19:00S 20°07' E 117°02'510.4
2018-Jan-22 18:29S 20°07' E 117°07'510.2
2018-Jan-22 18:00S 20°06' E 117°13'510.0
2018-Jan-22 17:30S 20°05' E 117°18'6 9.9
2018-Jan-22 16:57S 20°05' E 117°24'6 9.7
2018-Jan-22 16:19S 20°04' E 117°30'510.0
2018-Jan-22 15:50S 20°04' E 117°35'410.2
2018-Jan-22 15:26S 20°03' E 117°40'410.3
2018-Jan-22 15:00S 20°03' E 117°44'510.4
2018-Jan-22 14:29S 20°02' E 117°50'510.5
2018-Jan-22 13:59S 20°01' E 117°55'610.7
2018-Jan-22 13:28S 20°00' E 118°01'510.8
2018-Jan-22 13:00S 19°59' E 118°06'510.9
2018-Jan-22 12:30S 19°59' E 118°12'611.1
2018-Jan-22 11:58S 19°58' E 118°18'511.4
2018-Jan-22 11:30S 19°57' E 118°24'5 9.8
2018-Jan-22 10:59S 19°58' E 118°29'612.0
2018-Jan-22 10:30S 20°03' E 118°33'611.9
2018-Jan-22 09:59S 20°09' E 118°34'611.1
2018-Jan-22 09:26S 20°15' E 118°35'4 7.8
2018-Jan-22 08:58S 20°19' E 118°34'0 0.0
2018-Jan-22 06:17S 20°19' E 118°34'0 0.0
2018-Jan-22 05:59S 20°19' E 118°34'0 0.0
2018-Jan-22 05:29S 20°19' E 118°34'0 0.0
2018-Jan-22 04:59S 20°19' E 118°34'0 0.0
2018-Jan-21 23:29S 20°19' E 118°34'0 0.0
2018-Jan-21 19:17S 20°19' E 118°34'0 0.0
2018-Jan-21 18:59S 20°19' E 118°34'0 0.0
2018-Jan-21 18:23S 20°19' E 118°34'0 0.0
2018-Jan-21 17:59S 20°19' E 118°34'10 0.4
2018-Jan-20 19:38S 20°09' E 118°34'2 7.0
2018-Jan-20 19:17S 20°07' E 118°35'0 0.6
2018-Jan-20 18:57S 20°07' E 118°36'0 0.1
2018-Jan-20 18:27S 20°07' E 118°36'0 0.0
2018-Jan-20 17:39S 20°07' E 118°36'0 0.0
2018-Jan-20 15:33S 20°07' E 118°36'0 0.0
2018-Jan-20 15:09S 20°07' E 118°36'0 0.0
2018-Jan-20 14:45S 20°07' E 118°36'0 0.0
2018-Jan-18 12:41S 20°07' E 118°36'0 0.0
2018-Jan-18 11:42S 20°07' E 118°36'  
Track history (hours):
 
Tides and Currents Weather Stations Pressure Air Temp Water Temp Dewpoint Dewpoint Depression Visibility Wind Speed Wind Dir Waves Ship Positions

Oslo Bulk 1

Last reported at 2018-Jan-23 01:14 UTC. Time now 2018-Jan-23 16:17 UTC.
Position S 20°15' E 115°50'.

Length 108 m; draft 4.2 m.

Type: Cargo ship. MMSI: 564010000.

Date/timePositionNaut miles runAvg speedWind from/ knotsBaromVisibWave heightAir tempDewpointWater temp
2018-Jan-23 01:14S 20°15' E 115°50'410.3
2018-Jan-23 00:53S 20°15' E 115°54'512.6
2018-Jan-23 00:28S 20°14' E 115°60'4 9.1
2018-Jan-23 00:00S 20°13' E 116°04'2711.0
2018-Jan-22 21:33S 20°11' E 116°33'211.0
2018-Jan-22 21:23S 20°10' E 116°35'411.0
2018-Jan-22 20:59S 20°10' E 116°39'510.9
2018-Jan-22 20:30S 20°09' E 116°45'510.6
2018-Jan-22 20:00S 20°09' E 116°51'510.5
2018-Jan-22 19:30S 20°08' E 116°56'510.4
2018-Jan-22 19:00S 20°07' E 117°02'510.4
2018-Jan-22 18:29S 20°07' E 117°07'510.2
2018-Jan-22 18:00S 20°06' E 117°13'510.0
2018-Jan-22 17:30S 20°05' E 117°18'6 9.9
2018-Jan-22 16:57S 20°05' E 117°24'6 9.7
2018-Jan-22 16:19S 20°04' E 117°30'510.0
2018-Jan-22 15:50S 20°04' E 117°35'410.2
2018-Jan-22 15:26S 20°03' E 117°40'410.3
2018-Jan-22 15:00S 20°03' E 117°44'510.4
2018-Jan-22 14:29S 20°02' E 117°50'510.5
2018-Jan-22 13:59S 20°01' E 117°55'610.7
2018-Jan-22 13:28S 20°00' E 118°01'510.8
2018-Jan-22 13:00S 19°59' E 118°06'510.9
2018-Jan-22 12:30S 19°59' E 118°12'611.1
2018-Jan-22 11:58S 19°58' E 118°18'511.4
2018-Jan-22 11:30S 19°57' E 118°24'5 9.8
2018-Jan-22 10:59S 19°58' E 118°29'612.0
2018-Jan-22 10:30S 20°03' E 118°33'611.9
2018-Jan-22 09:59S 20°09' E 118°34'611.1
2018-Jan-22 09:26S 20°15' E 118°35'4 7.8
2018-Jan-22 08:58S 20°19' E 118°34'0 0.0
2018-Jan-22 06:17S 20°19' E 118°34'0 0.0
2018-Jan-22 05:59S 20°19' E 118°34'0 0.0
2018-Jan-22 05:29S 20°19' E 118°34'0 0.0
2018-Jan-22 04:59S 20°19' E 118°34'0 0.0
2018-Jan-21 23:29S 20°19' E 118°34'0 0.0
2018-Jan-21 19:17S 20°19' E 118°34'0 0.0
2018-Jan-21 18:59S 20°19' E 118°34'0 0.0
2018-Jan-21 18:23S 20°19' E 118°34'0 0.0
2018-Jan-21 17:59S 20°19' E 118°34'10 0.4
2018-Jan-20 19:38S 20°09' E 118°34'2 7.0
2018-Jan-20 19:17S 20°07' E 118°35'0 0.6
2018-Jan-20 18:57S 20°07' E 118°36'0 0.1
2018-Jan-20 18:27S 20°07' E 118°36'0 0.0
2018-Jan-20 17:39S 20°07' E 118°36'0 0.0
2018-Jan-20 15:33S 20°07' E 118°36'0 0.0
2018-Jan-20 15:09S 20°07' E 118°36'0 0.0
2018-Jan-20 14:45S 20°07' E 118°36'0 0.0
2018-Jan-18 12:41S 20°07' E 118°36'0 0.0
2018-Jan-18 11:42S 20°07' E 118°36'  

Dump ship's entire track history